createdAt,value
2023-02-26T00:01:14.708Z,100218.94
2023-02-26T00:03:43.386Z,100230.94
2023-02-26T00:06:12.088Z,100235.09
2023-02-26T00:08:40.602Z,100232.31
2023-02-26T00:11:10.108Z,100237.47
2023-02-26T00:13:41.000Z,100243.50
2023-02-26T00:16:25.029Z,100240.84
2023-02-26T00:18:54.283Z,100239.03
2023-02-26T00:21:24.995Z,100245.09
2023-02-26T00:23:53.698Z,100254.50
2023-02-26T00:26:24.145Z,100255.28
2023-02-26T00:28:53.240Z,100258.75
2023-02-26T00:31:24.980Z,100260.44
2023-02-26T00:33:54.513Z,100269.94
2023-02-26T00:36:26.595Z,100259.56
2023-02-26T00:39:08.138Z,100275.78
2023-02-26T00:41:38.818Z,100278.28
2023-02-26T00:44:07.874Z,100282.56
2023-02-26T00:46:46.463Z,100281.63
2023-02-26T00:49:28.221Z,100278.09
2023-02-26T00:51:59.548Z,100285.81
2023-02-26T00:54:30.697Z,100282.31
2023-02-26T00:57:00.396Z,100286.59
2023-02-26T00:59:29.502Z,100281.44
2023-02-26T01:01:59.381Z,100271.25
2023-02-26T01:04:28.507Z,100254.28
2023-02-26T01:06:59.080Z,100263.03
2023-02-26T01:09:29.862Z,100271.75
2023-02-26T01:12:01.518Z,100272.84
2023-02-26T01:14:31.765Z,100285.84
2023-02-26T01:17:07.841Z,100291.09
2023-02-26T01:19:43.225Z,100298.16
2023-02-26T01:22:17.113Z,100300.81
2023-02-26T01:24:49.297Z,100302.50
2023-02-26T01:27:18.235Z,100299.25
2023-02-26T01:29:46.960Z,100294.09
2023-02-26T01:32:24.376Z,100295.97
2023-02-26T01:34:57.838Z,100294.22
2023-02-26T01:37:34.687Z,100292.50
2023-02-26T01:40:30.883Z,100295.19
2023-02-26T01:43:05.682Z,100302.03
2023-02-26T01:45:37.076Z,100293.59
2023-02-26T01:48:12.688Z,100303.91
2023-02-26T01:50:41.781Z,100307.28
2023-02-26T01:53:22.257Z,100308.88
2023-02-26T01:55:55.638Z,100308.88
2023-02-26T01:58:26.283Z,100321.75
2023-02-26T02:00:54.693Z,100318.16
2023-02-26T02:03:27.251Z,100315.59
2023-02-26T02:05:59.559Z,100318.97
2023-02-26T02:08:28.066Z,100320.53
2023-02-26T02:10:56.625Z,100318.78
2023-02-26T02:13:36.788Z,100323.69
2023-02-26T02:16:16.266Z,100322.81
2023-02-26T02:18:54.667Z,100331.22
2023-02-26T02:21:52.174Z,100333.59
2023-02-26T02:24:30.001Z,100334.38
2023-02-26T02:27:09.150Z,100330.00
2023-02-26T02:30:07.147Z,100336.72
2023-02-26T02:32:41.057Z,100342.69
2023-02-26T02:35:16.378Z,100335.66
2023-02-26T02:37:49.612Z,100343.25
2023-02-26T02:40:23.274Z,100356.94
2023-02-26T02:42:57.518Z,100353.34
2023-02-26T02:45:32.123Z,100360.97
2023-02-26T02:48:02.709Z,100372.84
2023-02-26T02:50:36.033Z,100369.38
2023-02-26T02:53:12.256Z,100367.47
2023-02-26T02:55:47.620Z,100377.78
2023-02-26T02:58:20.046Z,100372.53
2023-02-26T03:00:51.044Z,100371.63
2023-02-26T03:03:29.112Z,100374.88
2023-02-26T03:05:57.652Z,100367.06
2023-02-26T03:08:31.238Z,100372.00
2023-02-26T03:10:59.875Z,100372.69
2023-02-26T03:13:28.819Z,100379.41
2023-02-26T03:16:19.379Z,100378.28
2023-02-26T03:18:59.490Z,100386.78
2023-02-26T03:21:45.973Z,100383.22
2023-02-26T03:24:28.294Z,100388.25
2023-02-26T03:27:01.989Z,100393.28
2023-02-26T03:29:39.300Z,100395.75
2023-02-26T03:32:13.025Z,100412.75
2023-02-26T03:34:47.573Z,100413.69
2023-02-26T03:37:22.180Z,100422.28
2023-02-26T03:39:52.308Z,100420.47
2023-02-26T03:42:26.389Z,100430.78
2023-02-26T03:45:02.687Z,100427.22
2023-02-26T03:47:32.965Z,100422.09
2023-02-26T03:50:08.031Z,100429.81
2023-02-26T03:52:49.889Z,100428.00
2023-02-26T03:55:33.378Z,100428.00
2023-02-26T03:58:20.034Z,100430.47
2023-02-26T04:01:04.466Z,100437.28
2023-02-26T04:03:38.167Z,100432.94
2023-02-26T04:06:08.921Z,100440.31
2023-02-26T04:08:37.864Z,100441.13
2023-02-26T04:11:10.025Z,100446.94
2023-02-26T04:13:38.622Z,100449.25
2023-02-26T04:16:07.875Z,100450.84
2023-02-26T04:18:37.067Z,100450.59
2023-02-26T04:21:08.588Z,100455.66
2023-02-26T04:23:37.038Z,100467.38
2023-02-26T04:26:06.051Z,100466.38
2023-02-26T04:28:37.728Z,100467.84
2023-02-26T04:31:06.617Z,100468.50
2023-02-26T04:33:35.206Z,100470.84
2023-02-26T04:36:04.866Z,100474.09
2023-02-26T04:38:34.775Z,100483.25
2023-02-26T04:41:03.443Z,100483.03
2023-02-26T04:43:31.961Z,100481.91
2023-02-26T04:46:20.390Z,100485.25
2023-02-26T04:48:49.078Z,100490.31
2023-02-26T04:51:18.120Z,100497.88
2023-02-26T04:53:48.202Z,100501.34
2023-02-26T04:56:16.972Z,100508.06
2023-02-26T04:58:46.481Z,100507.06
2023-02-26T05:01:20.007Z,100511.19
2023-02-26T05:03:49.989Z,100514.53
2023-02-26T05:06:18.446Z,100512.75
2023-02-26T05:08:48.223Z,100512.63
2023-02-26T05:11:16.750Z,100513.41
2023-02-26T05:13:45.209Z,100522.00
2023-02-26T05:16:13.809Z,100515.84
2023-02-26T05:18:42.847Z,100530.41
2023-02-26T05:21:12.532Z,100520.91
2023-02-26T05:23:41.086Z,100531.06
2023-02-26T05:26:11.012Z,100531.94
2023-02-26T05:28:39.499Z,100538.78
2023-02-26T05:31:08.562Z,100531.84
2023-02-26T05:33:37.306Z,100535.97
2023-02-26T05:36:07.086Z,100535.09
2023-02-26T05:38:35.615Z,100538.31
2023-02-26T05:41:04.425Z,100546.03
2023-02-26T05:43:34.637Z,100537.28
2023-02-26T05:46:03.216Z,100549.13
2023-02-26T05:48:31.882Z,100554.28
2023-02-26T05:51:00.493Z,100562.78
2023-02-26T05:53:29.685Z,100557.38
2023-02-26T05:55:58.213Z,100563.44
2023-02-26T05:58:26.684Z,100571.03
2023-02-26T06:00:59.553Z,100569.25
2023-02-26T06:03:28.032Z,100572.44
2023-02-26T06:05:56.753Z,100579.25
2023-02-26T06:08:25.225Z,100580.81
2023-02-26T06:10:53.691Z,100593.56
2023-02-26T06:13:22.184Z,100590.84
2023-02-26T06:15:52.216Z,100589.09
2023-02-26T06:18:21.995Z,100607.06
2023-02-26T06:20:50.530Z,100607.06
2023-02-26T06:23:19.010Z,100600.91
2023-02-26T06:25:47.568Z,100612.75
2023-02-26T06:28:15.970Z,100621.34
2023-02-26T06:30:44.378Z,100621.25
2023-02-26T06:33:12.908Z,100632.28
2023-02-26T06:35:42.795Z,100636.44
2023-02-26T06:38:11.275Z,100634.59
2023-02-26T06:40:39.805Z,100630.25
2023-02-26T06:43:08.501Z,100634.38
2023-02-26T06:45:37.266Z,100638.63
2023-02-26T06:48:05.777Z,100642.84
2023-02-26T06:50:34.248Z,100656.47
2023-02-26T06:53:04.535Z,100651.34
2023-02-26T06:55:33.063Z,100659.84
2023-02-26T06:58:01.509Z,100658.91
2023-02-26T07:00:30.093Z,100667.41
2023-02-26T07:02:58.618Z,100671.66
2023-02-26T07:05:27.151Z,100674.34
2023-02-26T07:07:56.046Z,100678.59
2023-02-26T07:10:26.009Z,100681.94
2023-02-26T07:12:54.414Z,100694.13
2023-02-26T07:15:22.861Z,100686.44
2023-02-26T07:17:51.316Z,100687.31
2023-02-26T07:20:19.864Z,100701.06
2023-02-26T07:22:48.355Z,100709.66
2023-02-26T07:25:16.854Z,100709.66
2023-02-26T07:27:46.693Z,100710.69
2023-02-26T07:30:15.979Z,100721.09
2023-02-26T07:32:44.865Z,100726.38
2023-02-26T07:35:13.647Z,100727.38
2023-02-26T07:37:42.135Z,100725.09
2023-02-26T07:40:11.972Z,100725.19
2023-02-26T07:42:40.510Z,100728.78
2023-02-26T07:45:11.070Z,100731.50
2023-02-26T07:47:39.830Z,100731.72
2023-02-26T07:50:08.995Z,100730.19
2023-02-26T07:52:37.536Z,100729.41
2023-02-26T07:55:06.823Z,100735.56
2023-02-26T07:57:35.253Z,100749.44
2023-02-26T08:00:04.836Z,100747.91
2023-02-26T08:02:42.197Z,100756.75
2023-02-26T08:05:11.193Z,100767.16
2023-02-26T08:07:39.649Z,100765.59
2023-02-26T08:10:09.754Z,100767.66
2023-02-26T08:12:38.295Z,100766.09
2023-02-26T08:15:07.768Z,100776.63
2023-02-26T08:17:36.328Z,100773.41
2023-02-26T08:20:07.219Z,100762.47
2023-02-26T08:22:35.907Z,100762.69
2023-02-26T08:25:04.629Z,100774.03
2023-02-26T08:27:33.156Z,100770.94
2023-02-26T08:30:01.721Z,100776.31
2023-02-26T08:32:30.322Z,100782.72
2023-02-26T08:34:58.804Z,100793.25
2023-02-26T08:37:28.799Z,100798.66
2023-02-26T08:39:57.338Z,100805.81
2023-02-26T08:42:25.694Z,100801.94
2023-02-26T08:44:54.145Z,100810.69
2023-02-26T08:47:28.819Z,100816.34
2023-02-26T08:49:59.117Z,100818.59
2023-02-26T08:52:28.968Z,100820.50
2023-02-26T08:54:57.438Z,100818.31
2023-02-26T08:57:26.090Z,100834.00
2023-02-26T08:59:54.788Z,100835.28
2023-02-26T09:02:23.310Z,100832.13
2023-02-26T09:04:51.735Z,100842.00
2023-02-26T09:07:20.114Z,100850.09
2023-02-26T09:09:49.934Z,100851.25
2023-02-26T09:12:18.454Z,100854.22
2023-02-26T09:14:47.167Z,100855.47
2023-02-26T09:17:16.319Z,100860.97
2023-02-26T09:19:44.781Z,100857.97
2023-02-26T09:22:13.404Z,100854.81
2023-02-26T09:24:41.875Z,100857.91
2023-02-26T09:27:11.798Z,100864.31
2023-02-26T09:29:40.275Z,100861.28
2023-02-26T09:32:08.978Z,100860.75
2023-02-26T09:34:38.396Z,100860.31
2023-02-26T09:37:09.683Z,100877.03
2023-02-26T09:39:38.401Z,100873.91
2023-02-26T09:42:17.076Z,100876.19
2023-02-26T09:44:45.963Z,100880.22
2023-02-26T09:47:18.968Z,100884.28
2023-02-26T09:49:54.333Z,100886.53
2023-02-26T09:52:26.839Z,100885.44
2023-02-26T09:55:01.778Z,100895.44
2023-02-26T09:57:36.208Z,100895.09
2023-02-26T10:00:08.622Z,100897.34
2023-02-26T10:02:49.744Z,100898.94
2023-02-26T10:05:21.317Z,100907.47
2023-02-26T10:07:58.027Z,100904.69
2023-02-26T10:10:36.514Z,100908.03
2023-02-26T10:13:06.607Z,100902.75
2023-02-26T10:15:41.362Z,100905.19
2023-02-26T10:18:15.281Z,100911.03
2023-02-26T10:20:53.318Z,100913.28
2023-02-26T10:23:28.716Z,100911.91
2023-02-26T10:26:04.180Z,100918.31
2023-02-26T10:28:48.653Z,100921.91
2023-02-26T10:31:25.639Z,100917.50
2023-02-26T10:34:07.456Z,100921.78
2023-02-26T10:36:45.418Z,100922.88
2023-02-26T10:39:24.681Z,100922.13
2023-02-26T10:41:54.089Z,100921.91
2023-02-26T10:44:31.295Z,100927.75
2023-02-26T10:47:09.352Z,100922.88
2023-02-26T10:49:53.193Z,100943.00
2023-02-26T10:52:25.530Z,100938.63
2023-02-26T10:55:23.367Z,100945.59
2023-02-26T10:57:58.000Z,100942.88
2023-02-26T11:00:27.974Z,100949.75
2023-02-26T11:02:58.343Z,100955.72
2023-02-26T11:05:30.187Z,100954.47
2023-02-26T11:08:02.532Z,100952.75
2023-02-26T11:10:41.776Z,100953.72
2023-02-26T11:13:10.920Z,100945.34
2023-02-26T11:15:41.572Z,100948.91
2023-02-26T11:18:17.011Z,100955.94
2023-02-26T11:20:47.992Z,100949.97
2023-02-26T11:23:22.037Z,100944.03
2023-02-26T11:25:56.168Z,100946.47
2023-02-26T11:28:31.520Z,100941.19
2023-02-26T11:31:06.798Z,100942.72
2023-02-26T11:33:39.279Z,100954.97
2023-02-26T11:36:13.202Z,100945.41
2023-02-26T11:38:45.880Z,100945.91
2023-02-26T11:41:14.981Z,100949.69
2023-02-26T11:43:46.031Z,100937.91
2023-02-26T11:46:16.901Z,100942.31
2023-02-26T11:48:48.530Z,100946.69
2023-02-26T11:51:21.371Z,100951.38
2023-02-26T11:53:52.685Z,100951.66
2023-02-26T11:56:26.625Z,100951.38
2023-02-26T11:58:56.453Z,100953.00
2023-02-26T12:01:30.561Z,100949.47
2023-02-26T12:04:02.378Z,100952.00
2023-02-26T12:06:31.445Z,100954.78
2023-02-26T12:09:00.148Z,100949.69
2023-02-26T12:11:52.435Z,100948.00
2023-02-26T12:14:59.120Z,100955.84
2023-02-26T12:17:53.338Z,100944.50
2023-02-26T12:20:28.331Z,100944.50
2023-02-26T12:23:11.601Z,100946.66
2023-02-26T12:26:14.256Z,100949.06
2023-02-26T12:29:12.279Z,100941.84
2023-02-26T12:31:58.355Z,100943.25
2023-02-26T12:34:39.967Z,100951.56
2023-02-26T12:37:37.485Z,100956.34
2023-02-26T12:40:19.103Z,100951.34
2023-02-26T12:42:58.748Z,100942.06
2023-02-26T12:45:43.329Z,100945.91
2023-02-26T12:48:51.715Z,100952.69
2023-02-26T12:51:35.244Z,100960.09
2023-02-26T12:54:42.038Z,100955.59
2023-02-26T12:57:28.912Z,100946.25
2023-02-26T13:00:24.050Z,100949.84
2023-02-26T13:03:36.763Z,100949.31
2023-02-26T13:06:33.847Z,100944.69
2023-02-26T13:09:09.110Z,100948.81
2023-02-26T13:11:51.710Z,100954.41
2023-02-26T13:14:33.960Z,100954.75
2023-02-26T13:17:09.139Z,100959.31
2023-02-26T13:19:44.669Z,100945.78
2023-02-26T13:22:21.530Z,100942.00
2023-02-26T13:24:56.096Z,100946.16
2023-02-26T13:27:28.466Z,100952.94
2023-02-26T13:30:19.109Z,100957.94
2023-02-26T13:32:50.094Z,100950.56
2023-02-26T13:35:23.079Z,100948.03
2023-02-26T13:37:55.514Z,100943.19
2023-02-26T13:40:39.979Z,100952.47
2023-02-26T13:43:21.784Z,100947.03
2023-02-26T13:46:03.307Z,100940.69
2023-02-26T13:48:42.164Z,100936.88
2023-02-26T13:51:15.657Z,100947.16
2023-02-26T13:53:53.656Z,100938.03
2023-02-26T13:56:25.118Z,100936.41
2023-02-26T13:58:55.552Z,100940.31
2023-02-26T14:01:30.544Z,100946.09
2023-02-26T14:04:24.499Z,100937.72
2023-02-26T14:06:54.324Z,100936.25
2023-02-26T14:09:51.783Z,100938.22
2023-02-26T14:12:36.187Z,100934.59
2023-02-26T14:15:21.661Z,100924.69
2023-02-26T14:17:52.205Z,100932.91
2023-02-26T14:20:24.179Z,100935.91
2023-02-26T14:23:00.616Z,100938.97
2023-02-26T14:25:36.159Z,100936.69
2023-02-26T14:28:44.199Z,100923.97
2023-02-26T14:31:19.815Z,100933.06
2023-02-26T14:33:59.844Z,100934.34
2023-02-26T14:36:35.951Z,100932.72
2023-02-26T14:39:09.349Z,100941.00
2023-02-26T14:41:41.426Z,100937.38
2023-02-26T14:44:16.552Z,100943.13
2023-02-26T14:46:46.480Z,100939.47
2023-02-26T14:49:19.601Z,100949.38
2023-02-26T14:52:01.961Z,100940.53
2023-02-26T14:54:45.337Z,100942.31
2023-02-26T14:57:25.436Z,100939.41
2023-02-26T15:00:13.189Z,100941.94
2023-02-26T15:03:05.074Z,100944.38
2023-02-26T15:05:51.137Z,100942.41
2023-02-26T15:08:35.539Z,100955.13
2023-02-26T15:11:33.388Z,100952.47
2023-02-26T15:14:23.199Z,100957.97
2023-02-26T15:17:04.415Z,100949.59
2023-02-26T15:19:44.646Z,100953.34
2023-02-26T15:22:33.813Z,100953.63
2023-02-26T15:25:03.493Z,100955.59
2023-02-26T15:27:34.770Z,100955.28
2023-02-26T15:30:05.683Z,100956.91
2023-02-26T15:32:41.061Z,100961.47
2023-02-26T15:35:17.474Z,100966.84
2023-02-26T15:37:51.182Z,100972.81
2023-02-26T15:40:21.050Z,100971.00
2023-02-26T15:42:52.677Z,100970.34
2023-02-26T15:45:27.484Z,100964.38
2023-02-26T15:47:58.850Z,100965.97
2023-02-26T15:50:30.337Z,100968.84
2023-02-26T15:53:02.019Z,100969.59
2023-02-26T15:55:34.881Z,100978.25
2023-02-26T15:58:05.152Z,100970.03
2023-02-26T16:00:37.807Z,100979.03
2023-02-26T16:03:06.282Z,100988.91
2023-02-26T16:05:34.804Z,100984.94
2023-02-26T16:08:03.324Z,100988.78
2023-02-26T16:10:38.255Z,100987.28
2023-02-26T16:13:08.641Z,100979.56
2023-02-26T16:15:40.958Z,100984.69
2023-02-26T16:18:14.456Z,100990.88
2023-02-26T16:20:45.387Z,100994.25
2023-02-26T16:23:16.577Z,100992.53
2023-02-26T16:25:51.304Z,100994.47
2023-02-26T16:28:23.260Z,100997.00
2023-02-26T16:30:56.110Z,100993.44
2023-02-26T16:33:26.594Z,100999.66
2023-02-26T16:35:56.423Z,101003.97
2023-02-26T16:38:28.358Z,101006.56
2023-02-26T16:41:00.513Z,101006.56
2023-02-26T16:43:36.867Z,101018.50
2023-02-26T16:46:07.187Z,101014.25
2023-02-26T16:48:44.134Z,101023.09
2023-02-26T16:51:15.795Z,101021.81
2023-02-26T16:53:48.486Z,101027.63
2023-02-26T16:56:19.585Z,101025.25
2023-02-26T16:58:55.757Z,101036.97
2023-02-26T17:01:26.134Z,101037.28
2023-02-26T17:04:02.199Z,101034.22
2023-02-26T17:06:32.244Z,101040.63
2023-02-26T17:09:03.010Z,101045.41
2023-02-26T17:11:33.623Z,101043.31
2023-02-26T17:14:19.033Z,101044.59
2023-02-26T17:16:52.530Z,101048.41
2023-02-26T17:19:21.061Z,101051.19
2023-02-26T17:21:51.476Z,101058.59
2023-02-26T17:24:22.605Z,101060.75
2023-02-26T17:26:52.012Z,101059.56
2023-02-26T17:29:31.085Z,101060.75
2023-02-26T17:32:01.167Z,101070.69
2023-02-26T17:34:29.695Z,101065.13
2023-02-26T17:36:59.719Z,101075.06
2023-02-26T17:39:29.197Z,101078.94
2023-02-26T17:41:57.673Z,101076.03
2023-02-26T17:44:26.656Z,101077.41
2023-02-26T17:46:55.199Z,101082.28
2023-02-26T17:49:25.100Z,101083.66
2023-02-26T17:51:54.126Z,101089.31
2023-02-26T17:54:22.590Z,101086.28
2023-02-26T17:57:51.738Z,101101.44
2023-02-26T18:00:20.967Z,101109.69
2023-02-26T18:02:50.648Z,101105.75
2023-02-26T18:05:19.413Z,101109.56
2023-02-26T18:07:48.251Z,101110.06
2023-02-26T18:10:19.692Z,101114.78
2023-02-26T18:12:48.087Z,101111.78
2023-02-26T18:15:18.298Z,101113.94
2023-02-26T18:17:46.793Z,101115.50
2023-02-26T18:20:19.623Z,101115.94
2023-02-26T18:22:48.860Z,101114.63
2023-02-26T18:25:18.245Z,101109.78
2023-02-26T18:27:51.069Z,101111.91
2023-02-26T18:30:27.567Z,101120.25
2023-02-26T18:32:56.762Z,101116.44
2023-02-26T18:35:27.360Z,101111.81
2023-02-26T18:37:57.032Z,101117.78
2023-02-26T18:40:28.123Z,101120.94
2023-02-26T18:42:56.831Z,101114.66
2023-02-26T18:45:26.885Z,101114.41
2023-02-26T18:47:55.322Z,101111.50
2023-02-26T18:50:24.003Z,101109.59
2023-02-26T18:52:52.467Z,101111.91
2023-02-26T18:55:20.993Z,101118.66
2023-02-26T18:57:49.568Z,101131.50
2023-02-26T19:00:18.670Z,101114.06
2023-02-26T19:02:48.625Z,101118.22
2023-02-26T19:05:23.129Z,101112.16
2023-02-26T19:07:52.393Z,101131.94
2023-02-26T19:10:21.894Z,101128.44
2023-02-26T19:12:51.454Z,101124.06
2023-02-26T19:15:20.108Z,101129.22
2023-02-26T19:17:49.992Z,101129.44
2023-02-26T19:20:19.081Z,101133.06
2023-02-26T19:22:47.546Z,101134.84
2023-02-26T19:25:16.090Z,101143.63
2023-02-26T19:27:44.784Z,101142.84
2023-02-26T19:30:13.873Z,101139.47
2023-02-26T19:32:42.478Z,101141.38
2023-02-26T19:35:12.656Z,101144.09
2023-02-26T19:37:41.209Z,101151.16
2023-02-26T19:40:13.536Z,101155.53
2023-02-26T19:42:42.136Z,101160.94
2023-02-26T19:45:11.671Z,101166.22
2023-02-26T19:47:40.439Z,101172.53
2023-02-26T19:50:10.793Z,101170.84
2023-02-26T19:52:43.492Z,101177.00
2023-02-26T19:55:14.441Z,101174.56
2023-02-26T19:57:43.122Z,101176.47
2023-02-26T20:00:14.164Z,101186.03
2023-02-26T20:02:43.127Z,101182.66
2023-02-26T20:05:16.902Z,101186.13
2023-02-26T20:07:48.239Z,101188.84
2023-02-26T20:10:16.865Z,101187.03
2023-02-26T20:12:46.529Z,101194.03
2023-02-26T20:15:15.258Z,101195.72
2023-02-26T20:17:43.899Z,101194.91
2023-02-26T20:20:13.122Z,101198.41
2023-02-26T20:22:41.798Z,101202.81
2023-02-26T20:25:11.875Z,101205.47
2023-02-26T20:27:40.413Z,101200.44
2023-02-26T20:30:10.362Z,101207.31
2023-02-26T20:32:39.086Z,101204.81
2023-02-26T20:35:08.542Z,101208.41
2023-02-26T20:37:37.053Z,101205.84
2023-02-26T20:40:08.216Z,101213.81
2023-02-26T20:42:38.313Z,101214.63
2023-02-26T20:45:08.637Z,101222.47
2023-02-26T20:47:37.144Z,101216.41
2023-02-26T20:50:06.553Z,101216.66
2023-02-26T20:52:35.071Z,101224.50
2023-02-26T20:55:03.739Z,101221.25
2023-02-26T20:57:32.549Z,101223.84
2023-02-26T21:00:09.840Z,101223.06
2023-02-26T21:02:38.655Z,101229.13
2023-02-26T21:05:08.314Z,101232.47
2023-02-26T21:07:37.461Z,101239.25
2023-02-26T21:10:07.046Z,101239.94
2023-02-26T21:12:35.596Z,101235.31
2023-02-26T21:15:07.272Z,101237.66
2023-02-26T21:17:35.814Z,101234.72
2023-02-26T21:20:06.104Z,101242.16
2023-02-26T21:22:35.452Z,101238.31
2023-02-26T21:25:06.008Z,101245.59
2023-02-26T21:27:34.688Z,101240.09
2023-02-26T21:30:03.600Z,101244.91
2023-02-26T21:32:33.982Z,101238.50
2023-02-26T21:35:02.463Z,101245.00
2023-02-26T21:37:30.976Z,101248.91
2023-02-26T21:39:59.376Z,101245.84
2023-02-26T21:42:27.791Z,101242.00
2023-02-26T21:44:56.264Z,101252.13
2023-02-26T21:47:24.880Z,101249.03
2023-02-26T21:49:54.773Z,101259.94
2023-02-26T21:52:28.640Z,101252.63
2023-02-26T21:54:57.922Z,101257.16
2023-02-26T21:57:27.120Z,101250.63
2023-02-26T21:59:55.656Z,101256.22
2023-02-26T22:02:24.217Z,101258.31
2023-02-26T22:04:54.162Z,101261.97
2023-02-26T22:07:22.609Z,101263.94
2023-02-26T22:09:51.786Z,101262.53
2023-02-26T22:12:20.418Z,101259.34
2023-02-26T22:14:49.425Z,101262.34
2023-02-26T22:17:17.841Z,101258.34
2023-02-26T22:19:46.309Z,101261.34
2023-02-26T22:22:16.735Z,101263.41
2023-02-26T22:24:45.586Z,101257.78
2023-02-26T22:27:13.988Z,101264.22
2023-02-26T22:29:42.535Z,101269.00
2023-02-26T22:32:11.082Z,101268.38
2023-02-26T22:34:39.648Z,101266.31
2023-02-26T22:37:08.151Z,101266.72
2023-02-26T22:39:38.076Z,101267.13
2023-02-26T22:42:06.545Z,101277.16
2023-02-26T22:44:36.070Z,101269.97
2023-02-26T22:47:04.732Z,101279.09
2023-02-26T22:49:33.199Z,101277.16
2023-02-26T22:52:01.659Z,101277.81
2023-02-26T22:54:30.321Z,101273.19
2023-02-26T22:57:00.159Z,101281.44
2023-02-26T22:59:28.699Z,101280.28
2023-02-26T23:01:57.208Z,101285.16
2023-02-26T23:04:25.831Z,101285.81
2023-02-26T23:06:54.323Z,101280.41
2023-02-26T23:09:22.836Z,101275.88
2023-02-26T23:11:51.999Z,101277.44
2023-02-26T23:14:21.896Z,101283.22
2023-02-26T23:16:50.459Z,101281.28
2023-02-26T23:19:19.301Z,101278.47
2023-02-26T23:21:47.800Z,101276.66
2023-02-26T23:24:16.229Z,101280.66
2023-02-26T23:26:44.933Z,101284.66
2023-02-26T23:29:13.418Z,101273.44
2023-02-26T23:31:43.553Z,101286.19
2023-02-26T23:34:12.248Z,101282.56
2023-02-26T23:36:40.696Z,101282.31
2023-02-26T23:39:09.755Z,101290.78
2023-02-26T23:41:38.260Z,101295.84
2023-02-26T23:44:06.719Z,101289.50
2023-02-26T23:46:35.179Z,101291.06
2023-02-26T23:49:05.142Z,101301.38
2023-02-26T23:51:33.612Z,101293.34
2023-02-26T23:54:02.082Z,101289.75
2023-02-26T23:56:30.476Z,101293.88
2023-02-26T23:58:58.945Z,101295.41
